Terminal Aerodrome Forecast
Issued by NWS Northern Indiana

Home | Current Version | Previous Version | Text Only | Print | Product List | Glossary On
Versions: 1 2 3 4 5 6 7 8 9 10 11 12 13 14 15 16 17 18
529
FTUS43 KIWX 220538
TAFFWA
TAF
KFWA 220538Z 2206/2306 VRB02KT 3SM TSRA BR BKN030CB
     FM220800 VRB02KT 2SM BR VCSH SCT015 BKN040
      TEMPO 2208/2211 1SM BR BKN015
     FM221100 00000KT 1/2SM FG VV005
     FM221300 10004KT 3SM BR BKN015
     FM221500 05006KT P6SM SCT030 BKN080
     FM230000 04008KT 6SM BR OVC012
     FM230300 04010KT 2SM BR OVC008=

USA.gov is the U.S. government's official web portal to all federal, state and local government web resources and services.